RJAARJFM

Guest
Details From RJAA - NARITA INTL
To RJFM - MIYAZAKI
Flight Number -
Tags generated
Created
Modified
Stats Distance 516 nm / 955 km
Max Altitude 34,100 ft / 10,394 m
Waypoints 12
Social Downloads 2
Likes 0
Share VATSIM

Download

Looking for another format? Having issues loading an existing format? Contact us
Advertisement - Login to hide

Notes

Basic altitude profile: - Ascent Rate: 2500ft/min - Ascent Speed: 250kts - Cruise Altitude: 35000ft - Cruise Speed: 420kts - Descent Rate: 1500ft/min - Descent Speed: 250kts Options: - Use NATs: yes - Use PACOTS: yes - Use low airways: yes - Use high airways: yes

Route

RJAA VIOLA Y21 KEC A1 JAKAL Y753 MANEP M750 MADOG RJFM

ID Type Via Altitude Latitude Longitude Leg Dist Tot Dist Heading (true) Name
O RJAA APT - 0 ft / 0 m 35.77655˚ 140.38277˚ - 0 nm - NARITA INTL
VIOLA FIX - 34,000 ft / 10,363 m 34.54780˚ 139.05743˚ 98 nm 98 nm 222° / 221° -
SETSU FIX Y21 (AWY-HI) 34,000 ft / 10,363 m 34.22225˚ 138.37891˚ 38 nm 137 nm 240° / 240° -
CELLO FIX Y21 (AWY-HI) 34,000 ft / 10,363 m 33.99861˚ 137.92017˚ 26 nm 163 nm 240° / 239° -
MEIWA FIX Y21 (AWY-HI) 34,000 ft / 10,363 m 33.68941˚ 136.70648˚ 63 nm 227 nm 253° / 253° -
KEC VOR Y21 (AWY-HI) 34,000 ft / 10,363 m 33.44775˚ 135.79450˚ 47 nm 274 nm 253° / 252° KUSHIMOTO VORTAC
ALBAT FIX A1 (AWY-HI) 34,000 ft / 10,363 m 33.36450˚ 135.44150˚ 18 nm 293 nm 254° / 254° -
HALON FIX A1 (AWY-HI) 34,000 ft / 10,363 m 33.24878˚ 134.99722˚ 23 nm 316 nm 253° / 253° -
JAKAL FIX A1 (AWY-HI) 34,100 ft / 10,394 m 33.06203˚ 134.23425˚ 39 nm 356 nm 254° / 253° -
MANEP FIX Y753 (AWY-HI) 22,700 ft / 6,919 m 32.65369˚ 133.40956˚ 48 nm 404 nm 240° / 239° -
MADOG FIX M750 (AWY-LO) 14,000 ft / 4,267 m 32.12519˚ 132.39624˚ 60 nm 465 nm 239° / 238° -
O RJFM APT - 0 ft / 0 m 31.87713˚ 131.44845˚ 50 nm 515 nm 253° / 253° MIYAZAKI

Altitude Profile

Advertisement - Login to hide

Weather


0- 5 10 15 20 25 30 35+ Temperature / ° C

Clouds and Precipitation
Forecast for 2017-12-14 00:00 UTC. Updated 2 hours ago

Ground ~20,000 ft ~40,000 ft Winds

RJAA

Details ICAO RJAA (NRT)
Name NARITA INTL
Region Japan
Timezone Asia/Tokyo (UTC+9.0)
Stats Elevation 141 ft / 43 m (AMSL)
Location 35.776552° 140.382770°
Runways 2
Magnetic Variation 7.405° W

METAR

RJAA 140100Z 31012G22KT 280V350 9999 FEW030 06/M06 Q1020 NOSIG

Decode

TAF

TAF RJAA 132306Z 1400/1506 33012KT 9999 FEW030= TAF RJBB 132305Z 1400/1506 34015KT 9999 FEW020 SCT050 BECMG 1415/1418 04008KT

Decode

Departure Runways

ID Width Length Bearing (true) Bearing (mag) Surface Threshold Offset Overrun Length
16L 196 ft / 60 m 7,162 ft / 2,183 m 149.61° 157.02° Asphalt 190 ft / 58 m 0 ft / 0 m
16R 196 ft / 60 m 13,142 ft / 4,006 m 149.61° 157.02° Asphalt 0 ft / 0 m 410 ft / 125 m
34L 196 ft / 60 m 13,142 ft / 4,006 m 329.62° 337.03° Asphalt 0 ft / 0 m 415 ft / 126 m
34R 196 ft / 60 m 7,162 ft / 2,183 m 329.62° 337.03° Asphalt 190 ft / 58 m 0 ft / 0 m

RJFM

Details ICAO RJFM (KMI)
Name MIYAZAKI
Region Japan
Timezone Asia/Tokyo (UTC+9.0)
Stats Elevation 20 ft / 6 m (AMSL)
Location 31.877128° 131.448447°
Runways 1
Magnetic Variation 6.932° W

METAR

RJFM 140100Z 30007KT 9999 FEW030 BKN050 07/M04 Q1028

Decode

TAF

TAF RJFM 132305Z 1400/1506 31006KT 9999 FEW030 BECMG 1400/1402 03011KT BECMG 1409/1411 32007KT BECMG 1500/1503 03003KT

Decode

Destination Runways

ID Width Length Bearing (true) Bearing (mag) Surface Threshold Offset Overrun Length
09 150 ft / 46 m 8,187 ft / 2,496 m 85.16° 92.09° Asphalt 0 ft / 0 m 200 ft / 61 m
27 150 ft / 46 m 8,187 ft / 2,496 m 265.18° 272.11° Asphalt 0 ft / 0 m 200 ft / 61 m

Approach Navaids

Runway Type Ident Frequency Range Bearing (true) Bearing (mag) Slope Elevation
27 Localiser IMZ 108.90 MHz 18 nm / 33 km 265.16° 272.10° - 54 ft / 16 m (AMSL)
27 Glidescope IMZ 108.90 MHz 10 nm / 19 km 265.17° 272.10° 3.00° 54 ft / 16 m (AMSL)
27 DME IMZ 108.90 MHz 18 nm / 33 km - - - 34 ft / 10 m (AMSL)

Popular Alternatives